Time;durP1;ratioP1;P1;durP2;ratioP2;P2;SDS_P1;SDS_P2;PMS_P1;PMS_P2;Temp;Humidity;BMP_temperature;BMP_pressure;BME280_temperature;BME280_humidity;BME280_pressure;Samples;Min_cycle;Max_cycle;Signal;HPM_P1;HPM_P2
2022/09/06 00:01:45;;;;;;;7.95;7.25;;;22.40;99.90;;;;;;6265756;27;82294;-65
2022/09/06 00:04:48;;;;;;;8.85;8.05;;;22.40;99.90;;;;;;6283494;27;82667;-65
2022/09/06 00:07:50;;;;;;;8.50;7.70;;;22.40;99.90;;;;;;6262333;27;82266;-65
2022/09/06 00:10:57;;;;;;;8.40;7.47;;;22.40;99.90;;;;;;6276529;27;82237;-65
2022/09/06 00:13:59;;;;;;;8.05;7.35;;;22.40;99.90;;;;;;6272570;27;82353;-66
2022/09/06 00:17:03;;;;;;;7.55;6.95;;;22.40;99.90;;;;;;6287117;27;82297;-65
2022/09/06 00:20:07;;;;;;;8.00;7.30;;;22.40;99.90;;;;;;6276880;27;81303;-66
2022/09/06 00:23:09;;;;;;;8.05;7.35;;;22.40;99.90;;;;;;6275613;27;82759;-65
2022/09/06 00:26:12;;;;;;;8.30;7.60;;;22.40;99.90;;;;;;6285417;27;82424;-65
2022/09/06 00:29:14;;;;;;;8.18;7.47;;;22.40;99.90;;;;;;6276839;27;82386;-65
2022/09/06 00:32:17;;;;;;;7.85;7.18;;;22.40;99.90;;;;;;6279556;27;82645;-65
2022/09/06 00:35:20;;;;;;;8.35;7.65;;;22.40;99.90;;;;;;6282396;27;82257;-66
2022/09/06 00:38:22;;;;;;;7.93;7.22;;;22.50;99.90;;;;;;6272788;27;82282;-66
2022/09/06 00:41:24;;;;;;;8.15;7.45;;;22.40;99.90;;;;;;6279591;27;82313;-66
2022/09/06 00:44:26;;;;;;;8.52;7.78;;;22.40;99.90;;;;;;6280213;27;81285;-65
2022/09/06 00:47:30;;;;;;;8.05;7.25;;;22.40;99.90;;;;;;6272624;27;82191;-65
2022/09/06 00:50:32;;;;;;;8.45;7.75;;;22.40;99.90;;;;;;6283452;27;83772;-65
2022/09/06 00:53:34;;;;;;;8.18;7.47;;;22.40;99.90;;;;;;6285820;27;81521;-66
2022/09/06 00:56:41;;;;;;;8.57;7.88;;;22.40;99.90;;;;;;6277719;27;82626;-65
2022/09/06 00:59:44;;;;;;;8.82;8.02;;;22.40;99.90;;;;;;6271370;27;82466;-65
2022/09/06 01:02:48;;;;;;;8.70;7.90;;;22.40;99.90;;;;;;6284220;27;81240;-65
2022/09/06 01:06:00;;;;;;;8.52;7.72;;;22.40;99.90;;;;;;6282158;27;82572;-65
2022/09/06 01:09:11;;;;;;;8.38;7.68;;;22.40;99.90;;;;;;6280126;27;82650;-66
2022/09/06 01:12:25;;;;;;;8.10;7.40;;;22.40;99.90;;;;;;6264255;27;82621;-65
2022/09/06 01:15:35;;;;;;;8.05;7.35;;;22.40;99.90;;;;;;6260938;27;82282;-65
2022/09/06 01:19:14;;;;;;;8.38;7.57;;;22.40;99.90;;;;;;6273298;27;82978;-65
2022/09/06 01:22:38;;;;;;;7.78;7.07;;;22.40;99.90;;;;;;6262895;27;82355;-65
2022/09/06 01:25:53;;;;;;;8.30;7.60;;;22.40;99.90;;;;;;6268231;27;81173;-65
2022/09/06 01:28:57;;;;;;;7.80;7.10;;;22.40;99.90;;;;;;6270441;27;82900;-65
2022/09/06 01:32:10;;;;;;;8.10;7.40;;;22.40;99.90;;;;;;6269558;27;82814;-65
2022/09/06 01:35:21;;;;;;;8.65;7.85;;;22.40;99.90;;;;;;6273452;27;82205;-65
2022/09/06 01:38:23;;;;;;;7.85;7.15;;;22.40;99.90;;;;;;6266846;27;82496;-65
2022/09/06 01:41:26;;;;;;;8.38;7.57;;;22.40;99.90;;;;;;6274399;27;82273;-65
2022/09/06 01:44:30;;;;;;;8.88;8.07;;;22.40;99.90;;;;;;6267310;27;82180;-65
2022/09/06 01:47:40;;;;;;;8.02;7.32;;;22.40;99.90;;;;;;6284176;27;82596;-65
2022/09/06 01:50:57;;;;;;;7.55;6.95;;;22.40;99.90;;;;;;6271778;27;82673;-65
2022/09/06 01:54:22;;;;;;;8.35;7.57;;;22.40;99.90;;;;;;6269862;27;81226;-65
2022/09/06 01:57:41;;;;;;;7.50;6.90;;;22.40;99.90;;;;;;6280780;27;82182;-65
2022/09/06 02:00:54;;;;;;;8.00;7.30;;;22.40;99.90;;;;;;6268699;27;82348;-65
2022/09/06 02:04:01;;;;;;;7.70;7.00;;;22.40;99.90;;;;;;6276864;27;82587;-65
2022/09/06 02:07:10;;;;;;;7.80;7.20;;;22.40;99.90;;;;;;6278379;27;82710;-65
2022/09/06 02:10:20;;;;;;;8.27;7.47;;;22.40;99.90;;;;;;6265459;27;82445;-65
2022/09/06 02:13:25;;;;;;;7.95;7.25;;;22.40;99.90;;;;;;6265264;27;82318;-66
2022/09/06 02:16:33;;;;;;;8.70;7.93;;;22.40;99.90;;;;;;6266684;27;82303;-65
2022/09/06 02:19:37;;;;;;;8.05;7.30;;;22.40;99.90;;;;;;6278305;27;82369;-65
2022/09/06 02:22:41;;;;;;;7.32;6.72;;;22.40;99.90;;;;;;6257539;27;81238;-65
2022/09/06 02:25:50;;;;;;;7.65;6.95;;;22.30;99.90;;;;;;6279050;27;82370;-65
2022/09/06 02:28:52;;;;;;;8.25;7.45;;;22.40;99.90;;;;;;6260313;27;82279;-65
2022/09/06 02:32:00;;;;;;;7.88;7.28;;;22.40;99.90;;;;;;6282581;27;81199;-65
2022/09/06 02:35:08;;;;;;;7.57;6.88;;;22.40;99.90;;;;;;6273454;27;82333;-65
2022/09/06 02:38:11;;;;;;;8.02;7.32;;;22.40;99.90;;;;;;6262679;27;82431;-65
2022/09/06 02:41:15;;;;;;;7.85;7.15;;;22.40;99.90;;;;;;6260917;27;81175;-65
2022/09/06 02:44:17;;;;;;;7.97;7.28;;;22.40;99.90;;;;;;6264512;27;82331;-65
2022/09/06 02:47:20;;;;;;;7.53;6.93;;;22.40;99.90;;;;;;6277982;27;82315;-65
2022/09/06 02:50:22;;;;;;;7.95;7.20;;;22.40;99.90;;;;;;6280659;27;83845;-65
2022/09/06 02:53:25;;;;;;;7.63;6.93;;;22.40;99.90;;;;;;6273236;27;81772;-65
2022/09/06 02:56:27;;;;;;;7.88;7.18;;;22.40;99.90;;;;;;6280085;27;82372;-65
2022/09/06 02:59:29;;;;;;;7.70;7.00;;;22.30;99.90;;;;;;6273179;27;82338;-65
2022/09/06 03:02:32;;;;;;;7.75;7.10;;;22.40;99.90;;;;;;6270936;27;82300;-65
2022/09/06 03:05:35;;;;;;;7.43;6.82;;;22.40;99.90;;;;;;6267167;27;82348;-63
2022/09/06 03:08:37;;;;;;;7.82;7.03;;;22.30;99.90;;;;;;6270827;27;81078;-63
2022/09/06 03:11:39;;;;;;;8.00;7.20;;;22.40;99.90;;;;;;6269688;27;82683;-63
2022/09/06 03:14:41;;;;;;;7.30;6.70;;;22.30;99.90;;;;;;6277016;27;82479;-63
2022/09/06 03:17:44;;;;;;;7.20;6.60;;;22.40;99.90;;;;;;6269215;27;82252;-63
2022/09/06 03:20:48;;;;;;;7.25;6.63;;;22.30;99.90;;;;;;6281918;27;82998;-64
2022/09/06 03:23:50;;;;;;;7.65;7.00;;;22.30;99.90;;;;;;6263469;27;82353;-63
2022/09/06 03:26:52;;;;;;;7.47;6.88;;;22.40;99.90;;;;;;6282459;27;82306;-63
2022/09/06 03:29:54;;;;;;;7.30;6.70;;;22.40;99.90;;;;;;6277273;27;82218;-63
2022/09/06 03:32:58;;;;;;;7.38;6.68;;;22.30;99.90;;;;;;6281627;27;82339;-63
2022/09/06 03:36:02;;;;;;;7.05;6.45;;;22.30;99.90;;;;;;6271952;27;82339;-63
2022/09/06 03:39:05;;;;;;;7.40;6.80;;;22.30;99.90;;;;;;6272183;27;83955;-63
2022/09/06 03:42:08;;;;;;;7.18;6.57;;;22.30;99.90;;;;;;6274759;27;83772;-65
2022/09/06 03:45:10;;;;;;;8.15;7.40;;;22.30;99.90;;;;;;6273384;27;84675;-65
2022/09/06 03:48:14;;;;;;;6.80;6.22;;;22.30;99.90;;;;;;6274120;27;82936;-65
2022/09/06 03:51:16;;;;;;;7.43;6.72;;;22.30;99.90;;;;;;6271534;27;84996;-65
2022/09/06 03:54:18;;;;;;;6.35;5.80;;;22.30;99.90;;;;;;6283359;27;84148;-65
2022/09/06 03:57:20;;;;;;;7.25;6.55;;;22.30;99.90;;;;;;6283848;27;84013;-64
2022/09/06 04:00:22;;;;;;;6.93;6.32;;;22.30;99.90;;;;;;6273797;27;84091;-63
2022/09/06 04:03:26;;;;;;;7.13;6.53;;;22.30;99.90;;;;;;6277219;27;84494;-63
2022/09/06 04:06:28;;;;;;;7.07;6.47;;;22.30;99.90;;;;;;6276454;27;82904;-63
2022/09/06 04:09:30;;;;;;;6.93;6.32;;;22.30;99.90;;;;;;6281811;27;83957;-63
2022/09/06 04:12:33;;;;;;;7.10;6.50;;;22.30;99.90;;;;;;6274090;27;83590;-64
2022/09/06 04:15:36;;;;;;;6.80;6.20;;;22.30;99.90;;;;;;6272709;27;85303;-63
2022/09/06 04:18:39;;;;;;;7.03;6.43;;;22.30;99.90;;;;;;6268165;27;84075;-64
2022/09/06 04:21:41;;;;;;;6.85;6.25;;;22.30;99.90;;;;;;6273686;27;84929;-63
2022/09/06 04:24:43;;;;;;;7.07;6.47;;;22.30;99.90;;;;;;6265523;27;84475;-65
2022/09/06 04:27:45;;;;;;;6.65;6.15;;;22.30;99.90;;;;;;6272762;27;84205;-65
2022/09/06 04:30:53;;;;;;;6.70;6.10;;;22.30;99.90;;;;;;6281079;27;83980;-65
2022/09/06 04:33:57;;;;;;;7.07;6.28;;;22.30;99.90;;;;;;6278167;27;84103;-66
2022/09/06 04:36:59;;;;;;;6.68;6.18;;;22.30;99.90;;;;;;6285343;27;82890;-65
2022/09/06 04:40:01;;;;;;;6.97;6.38;;;22.30;99.90;;;;;;6269238;27;85655;-65
2022/09/06 04:43:03;;;;;;;6.30;5.70;;;22.30;99.90;;;;;;6275992;27;82229;-66
2022/09/06 04:46:06;;;;;;;6.28;5.78;;;22.30;99.90;;;;;;6278131;27;84342;-66
2022/09/06 04:49:09;;;;;;;10.18;6.47;;;22.30;99.90;;;;;;6269609;27;83946;-65
2022/09/06 04:52:12;;;;;;;6.53;6.03;;;22.30;99.90;;;;;;6274499;27;85024;-65
2022/09/06 04:55:14;;;;;;;6.10;5.50;;;22.30;99.90;;;;;;6281036;27;83231;-63
2022/09/06 04:58:18;;;;;;;6.80;6.20;;;22.30;99.90;;;;;;6278049;27;84218;-63
2022/09/06 05:01:21;;;;;;;6.82;6.22;;;22.30;99.90;;;;;;6268342;27;84261;-63
2022/09/06 05:04:25;;;;;;;6.70;6.00;;;22.30;99.90;;;;;;6259709;27;85570;-63
2022/09/06 05:07:27;;;;;;;6.15;5.55;;;22.40;99.90;;;;;;6272404;27;84128;-63
2022/09/06 05:10:29;;;;;;;6.70;5.88;;;22.30;99.90;;;;;;6270934;27;83993;-64
2022/09/06 05:13:31;;;;;;;6.40;5.80;;;22.40;99.90;;;;;;6272359;27;83261;-64
2022/09/06 05:16:33;;;;;;;6.97;6.28;;;22.40;99.90;;;;;;6272346;27;83928;-64
2022/09/06 05:19:36;;;;;;;6.55;5.85;;;22.40;99.90;;;;;;6267596;27;85642;-64
2022/09/06 05:22:38;;;;;;;6.40;5.90;;;22.40;99.90;;;;;;6260349;27;85020;-64
2022/09/06 05:25:40;;;;;;;6.63;5.70;;;22.40;99.90;;;;;;6272300;27;83753;-64
2022/09/06 05:28:42;;;;;;;6.90;5.85;;;22.40;99.90;;;;;;6280429;27;84330;-64
2022/09/06 05:31:44;;;;;;;6.07;5.57;;;22.40;99.90;;;;;;6282193;27;83922;-64
2022/09/06 05:34:47;;;;;;;6.60;6.00;;;22.40;99.90;;;;;;6276555;27;84347;-66
2022/09/06 05:37:49;;;;;;;6.80;6.20;;;22.40;99.90;;;;;;6270766;27;84174;-66
2022/09/06 05:40:51;;;;;;;6.10;5.60;;;22.40;99.90;;;;;;6267206;27;83096;-66
2022/09/06 05:43:54;;;;;;;6.50;5.88;;;22.40;99.90;;;;;;6270240;27;82486;-66
2022/09/06 05:46:55;;;;;;;6.45;5.85;;;22.40;99.90;;;;;;6270698;27;83068;-66
2022/09/06 05:49:59;;;;;;;6.20;5.60;;;22.40;99.90;;;;;;6272448;27;84515;-66
2022/09/06 05:53:01;;;;;;;7.82;6.30;;;22.40;99.90;;;;;;6257697;27;84989;-66
2022/09/06 05:56:04;;;;;;;6.75;5.50;;;22.40;99.90;;;;;;6265617;27;84085;-66
2022/09/06 05:59:06;;;;;;;6.45;5.75;;;22.40;99.90;;;;;;6277558;27;84017;-66
2022/09/06 06:02:08;;;;;;;6.05;5.45;;;22.50;99.90;;;;;;6258744;27;84045;-66
2022/09/06 06:05:11;;;;;;;6.65;5.35;;;22.40;99.90;;;;;;6269336;27;84047;-64
2022/09/06 06:08:13;;;;;;;5.78;5.28;;;22.40;99.90;;;;;;6282861;27;85864;-64
2022/09/06 06:11:15;;;;;;;6.13;5.53;;;22.50;99.90;;;;;;6263705;27;85616;-64
2022/09/06 06:14:17;;;;;;;6.28;5.70;;;22.40;99.90;;;;;;6265912;27;83252;-64
2022/09/06 06:17:19;;;;;;;6.00;5.50;;;22.40;99.90;;;;;;6271662;27;84324;-64
2022/09/06 06:20:23;;;;;;;6.38;5.78;;;22.50;99.90;;;;;;6258303;27;84009;-64
2022/09/06 06:23:25;;;;;;;5.82;5.32;;;22.50;99.90;;;;;;6280452;27;84937;-63
2022/09/06 06:26:28;;;;;;;6.63;5.78;;;22.40;99.90;;;;;;6272844;27;84011;-64
2022/09/06 06:29:30;;;;;;;6.75;5.38;;;22.50;99.90;;;;;;6265646;27;83986;-63
2022/09/06 06:32:32;;;;;;;8.27;5.78;;;22.40;99.90;;;;;;6274229;27;82944;-64
2022/09/06 06:35:36;;;;;;;6.00;5.40;;;22.50;99.90;;;;;;6258506;27;84038;-63
2022/09/06 06:38:39;;;;;;;6.60;5.38;;;22.40;99.90;;;;;;6273994;27;86671;-63
2022/09/06 06:41:41;;;;;;;6.97;5.63;;;22.50;99.90;;;;;;6283948;27;84115;-64
2022/09/06 06:44:43;;;;;;;6.18;5.40;;;22.50;99.90;;;;;;6261201;27;82031;-63
2022/09/06 06:47:49;;;;;;;7.10;5.55;;;22.40;99.90;;;;;;6257170;27;84023;-63
2022/09/06 06:50:52;;;;;;;8.52;6.22;;;22.40;99.90;;;;;;6273627;27;84343;-64
2022/09/06 06:53:56;;;;;;;6.07;5.47;;;22.40;99.90;;;;;;6275031;27;85156;-64
2022/09/06 06:56:58;;;;;;;5.80;5.40;;;22.40;99.90;;;;;;6282960;27;83913;-64
2022/09/06 07:00:00;;;;;;;6.90;5.70;;;22.40;99.90;;;;;;6272813;27;84121;-64
2022/09/06 07:03:02;;;;;;;7.10;5.80;;;22.40;99.90;;;;;;6268794;27;84022;-63
2022/09/06 07:06:06;;;;;;;6.78;6.10;;;22.40;99.90;;;;;;6276702;27;86999;-64
2022/09/06 07:09:08;;;;;;;6.40;5.80;;;22.40;99.90;;;;;;6274523;27;83977;-64
2022/09/06 07:12:10;;;;;;;6.60;6.00;;;22.40;99.90;;;;;;6263733;27;83946;-64
2022/09/06 07:15:12;;;;;;;6.03;5.53;;;22.40;99.90;;;;;;6276968;27;83643;-64
2022/09/06 07:18:16;;;;;;;6.65;5.70;;;22.40;99.90;;;;;;6273221;27;83952;-63
2022/09/06 07:21:24;;;;;;;5.97;5.47;;;22.40;99.90;;;;;;6266778;27;84063;-64
2022/09/06 07:24:26;;;;;;;6.47;5.88;;;22.40;99.90;;;;;;6275601;27;85230;-64
2022/09/06 07:27:28;;;;;;;6.15;5.60;;;22.40;99.90;;;;;;6273741;27;84196;-64
2022/09/06 07:30:31;;;;;;;6.43;5.85;;;22.40;99.90;;;;;;6261311;27;84236;-63
2022/09/06 07:33:35;;;;;;;6.47;5.88;;;22.40;99.90;;;;;;6286500;27;84026;-64
2022/09/06 07:36:38;;;;;;;6.47;5.88;;;22.40;99.90;;;;;;6273402;27;84312;-66
2022/09/06 07:39:40;;;;;;;6.15;5.57;;;22.30;99.90;;;;;;6263981;27;84041;-66
2022/09/06 07:42:42;;;;;;;7.18;6.10;;;22.40;99.90;;;;;;6283825;27;84395;-65
2022/09/06 07:45:44;;;;;;;6.38;5.82;;;22.40;99.90;;;;;;6285006;27;83524;-65
2022/09/06 07:48:46;;;;;;;5.82;5.35;;;22.40;99.90;;;;;;6277282;27;84048;-66
2022/09/06 07:51:50;;;;;;;5.97;5.47;;;22.40;99.90;;;;;;6262581;27;82874;-66
2022/09/06 07:54:52;;;;;;;6.28;5.75;;;22.40;99.90;;;;;;6278355;27;85193;-65
2022/09/06 07:57:54;;;;;;;6.60;6.00;;;22.40;99.90;;;;;;6283910;27;84542;-66
2022/09/06 08:01:14;;;;;;;6.50;5.90;;;22.40;99.90;;;;;;6271970;27;86828;-66
2022/09/06 08:04:16;;;;;;;6.60;6.00;;;22.40;99.90;;;;;;6284229;27;82906;-66
2022/09/06 08:07:20;;;;;;;5.90;5.40;;;22.40;99.90;;;;;;6285373;27;84088;-66
2022/09/06 08:10:22;;;;;;;6.80;6.20;;;22.40;99.90;;;;;;6272164;27;84261;-66
2022/09/06 08:13:24;;;;;;;6.80;6.10;;;22.40;99.90;;;;;;6284214;27;84333;-66
2022/09/06 08:16:28;;;;;;;6.30;5.80;;;22.40;99.90;;;;;;6284042;27;83728;-66
2022/09/06 08:19:30;;;;;;;6.47;5.97;;;22.40;99.90;;;;;;6277903;27;83956;-66
2022/09/06 08:22:34;;;;;;;6.95;6.35;;;22.40;99.90;;;;;;6277963;27;84353;-66
2022/09/06 08:25:35;;;;;;;7.15;6.43;;;22.40;99.90;;;;;;6279952;27;84917;-66
2022/09/06 08:28:37;;;;;;;6.53;5.93;;;22.40;99.90;;;;;;6274419;27;84097;-66
2022/09/06 08:31:41;;;;;;;6.30;5.80;;;22.40;99.90;;;;;;6283336;27;86551;-66
2022/09/06 08:34:43;;;;;;;6.10;5.60;;;22.40;99.90;;;;;;6262780;27;84072;-66
2022/09/06 08:37:46;;;;;;;6.22;5.72;;;22.40;99.90;;;;;;6261342;27;84137;-66
2022/09/06 08:40:49;;;;;;;6.35;5.85;;;22.40;99.90;;;;;;6280642;27;84480;-65
2022/09/06 08:43:54;;;;;;;6.80;6.20;;;22.40;99.90;;;;;;6284120;27;83992;-65
2022/09/06 08:46:59;;;;;;;6.72;6.22;;;22.40;99.90;;;;;;6276346;27;82949;-66
2022/09/06 08:50:03;;;;;;;6.07;5.57;;;22.40;99.90;;;;;;6278445;27;84133;-66
2022/09/06 08:53:11;;;;;;;6.82;6.28;;;22.40;99.90;;;;;;6277499;27;84031;-66
2022/09/06 08:56:18;;;;;;;7.38;6.40;;;22.40;99.90;;;;;;6272676;27;84017;-66
2022/09/06 08:59:20;;;;;;;7.55;6.57;;;22.40;99.90;;;;;;6283968;27;84199;-66
2022/09/06 09:02:22;;;;;;;6.43;5.82;;;22.40;99.90;;;;;;6284580;27;84006;-66
2022/09/06 09:05:28;;;;;;;6.43;5.82;;;22.40;99.90;;;;;;6260675;27;84197;-66
2022/09/06 09:08:39;;;;;;;6.47;5.88;;;22.40;99.90;;;;;;6282331;27;83236;-66
2022/09/06 09:11:45;;;;;;;6.35;5.85;;;22.40;99.90;;;;;;6261584;27;84142;-66
2022/09/06 09:14:51;;;;;;;6.35;5.85;;;22.40;99.90;;;;;;6279770;27;84104;-66
2022/09/06 09:17:53;;;;;;;6.15;5.55;;;22.40;99.90;;;;;;6277922;27;83131;-66
2022/09/06 09:20:57;;;;;;;6.07;5.57;;;22.40;99.90;;;;;;6262643;27;83969;-66
2022/09/06 09:24:04;;;;;;;6.43;5.90;;;22.40;99.90;;;;;;6275249;27;83988;-66
2022/09/06 09:27:11;;;;;;;6.50;6.00;;;22.40;99.90;;;;;;6262229;27;83827;-66
2022/09/06 09:30:13;;;;;;;6.60;6.10;;;22.40;99.90;;;;;;6272898;27;83923;-66
2022/09/06 09:33:28;;;;;;;6.55;5.97;;;22.40;99.90;;;;;;6270836;27;84343;-66
2022/09/06 09:36:31;;;;;;;8.38;6.32;;;22.40;99.90;;;;;;6262249;27;84175;-66
2022/09/06 09:39:39;;;;;;;7.25;6.65;;;22.40;99.90;;;;;;6271887;27;84004;-66
2022/09/06 09:42:41;;;;;;;6.47;5.88;;;22.40;99.90;;;;;;6269643;27;84036;-65
2022/09/06 09:45:44;;;;;;;7.05;6.35;;;22.40;99.90;;;;;;6271834;27;84548;-66
2022/09/06 09:49:01;;;;;;;7.00;6.40;;;22.30;99.90;;;;;;6265859;27;83310;-66
2022/09/06 09:52:10;;;;;;;6.70;6.10;;;22.40;99.90;;;;;;6278363;27;83998;-66
2022/09/06 09:55:13;;;;;;;6.43;5.85;;;22.40;99.90;;;;;;6271664;27;84299;-66
2022/09/06 09:58:26;;;;;;;7.03;6.43;;;22.40;99.90;;;;;;6265807;27;84962;-66
2022/09/06 10:01:31;;;;;;;6.88;6.28;;;22.40;99.90;;;;;;6272377;27;84291;-66
2022/09/06 10:04:37;;;;;;;7.00;6.40;;;22.40;99.90;;;;;;6261030;27;84261;-66
2022/09/06 10:07:44;;;;;;;7.57;6.80;;;22.40;99.90;;;;;;6281077;27;83957;-66
2022/09/06 10:10:48;;;;;;;7.43;6.82;;;22.40;99.90;;;;;;6258078;27;84049;-66
2022/09/06 10:13:51;;;;;;;7.13;6.53;;;22.40;99.90;;;;;;6270939;27;84055;-66
2022/09/06 10:16:53;;;;;;;8.20;7.50;;;22.40;99.90;;;;;;6272770;27;84037;-66
2022/09/06 10:19:55;;;;;;;7.57;6.97;;;22.40;99.90;;;;;;6271037;27;83331;-66
2022/09/06 10:23:04;;;;;;;7.57;6.97;;;22.40;99.90;;;;;;6267312;27;83774;-66
2022/09/06 10:26:09;;;;;;;7.70;7.00;;;22.40;99.90;;;;;;6263068;27;84062;-66
2022/09/06 10:29:14;;;;;;;7.13;6.53;;;22.40;99.90;;;;;;6276083;27;85016;-66
2022/09/06 10:32:29;;;;;;;6.57;5.97;;;22.40;99.90;;;;;;6276466;27;82898;-66
2022/09/06 10:35:35;;;;;;;6.97;6.38;;;22.40;99.90;;;;;;6276142;27;84207;-66
2022/09/06 10:38:48;;;;;;;8.40;7.60;;;22.40;99.90;;;;;;6264261;27;84637;-66
2022/09/06 10:42:12;;;;;;;7.80;7.15;;;22.50;99.90;;;;;;6264144;27;83627;-66
2022/09/06 10:45:27;;;;;;;8.27;7.57;;;22.40;99.90;;;;;;6264478;27;83942;-63
2022/09/06 10:48:31;;;;;;;7.95;7.25;;;22.40;99.90;;;;;;6266709;27;84329;-63
2022/09/06 10:51:38;;;;;;;7.82;7.22;;;22.50;99.90;;;;;;6260158;27;83311;-63
2022/09/06 10:54:45;;;;;;;7.47;6.88;;;22.50;99.90;;;;;;6276574;27;84018;-63
2022/09/06 10:57:55;;;;;;;7.80;7.10;;;22.50;99.90;;;;;;6266948;27;84350;-64
2022/09/06 11:00:57;;;;;;;7.82;7.13;;;22.40;99.90;;;;;;6273820;27;84777;-63
2022/09/06 11:04:00;;;;;;;6.97;6.38;;;22.40;99.90;;;;;;6271169;27;83962;-63
2022/09/06 11:07:05;;;;;;;6.82;6.22;;;22.50;99.90;;;;;;6271044;27;84122;-66
2022/09/06 11:10:14;;;;;;;7.30;6.60;;;22.40;99.90;;;;;;6266813;27;83186;-66
2022/09/06 11:13:19;;;;;;;6.82;6.22;;;22.50;99.90;;;;;;6282340;27;83279;-66
2022/09/06 11:16:25;;;;;;;6.60;6.10;;;22.50;99.90;;;;;;6268407;27;84581;-66
2022/09/06 11:19:31;;;;;;;6.82;6.30;;;22.50;99.90;;;;;;6273877;27;82973;-66
2022/09/06 11:23:16;;;;;;;7.38;6.70;;;22.50;99.90;;;;;;6263506;27;83320;-66
2022/09/06 11:26:33;;;;;;;7.22;6.53;;;22.50;99.90;;;;;;6260343;27;84157;-67
2022/09/06 11:29:41;;;;;;;7.57;6.97;;;22.50;99.90;;;;;;6270907;27;84497;-66
2022/09/06 11:32:47;;;;;;;7.78;7.07;;;22.50;99.90;;;;;;6266410;27;85355;-66
2022/09/06 11:35:50;;;;;;;7.22;6.65;;;22.50;99.90;;;;;;6255668;27;84071;-66
2022/09/06 11:38:57;;;;;;;7.68;7.07;;;22.50;99.90;;;;;;6265836;27;84438;-66
2022/09/06 11:41:59;;;;;;;7.95;7.35;;;22.50;99.90;;;;;;6273591;27;84308;-66
2022/09/06 11:45:20;;;;;;;6.97;6.40;;;22.50;99.90;;;;;;6278641;27;84080;-66
2022/09/06 11:48:50;;;;;;;6.60;6.10;;;22.50;99.90;;;;;;6272945;27;84062;-66
2022/09/06 11:51:52;;;;;;;6.80;6.20;;;22.50;99.90;;;;;;6262491;27;84028;-67
2022/09/06 11:54:54;;;;;;;6.97;6.47;;;22.50;99.90;;;;;;6277442;27;83687;-66
2022/09/06 11:58:00;;;;;;;7.20;6.60;;;22.50;99.90;;;;;;6284134;27;84112;-66
2022/09/06 12:01:35;;;;;;;6.65;6.15;;;22.50;99.90;;;;;;6280460;27;82944;-66
2022/09/06 12:05:18;;;;;;;7.20;6.60;;;22.50;99.90;;;;;;6260286;27;85000;-66
2022/09/06 12:08:32;;;;;;;6.82;6.20;;;22.50;99.90;;;;;;6267666;27;84056;-64
2022/09/06 12:11:37;;;;;;;6.90;6.30;;;22.50;99.90;;;;;;6274458;27;84285;-64
2022/09/06 12:14:41;;;;;;;6.72;6.13;;;22.50;99.90;;;;;;6261646;27;84081;-64
2022/09/06 12:17:47;;;;;;;6.68;6.18;;;22.50;99.90;;;;;;6277401;27;84110;-64
2022/09/06 12:21:03;;;;;;;6.22;5.72;;;22.50;99.90;;;;;;6266025;27;82944;-64
2022/09/06 12:24:06;;;;;;;6.40;5.90;;;22.50;99.90;;;;;;6273332;27;84287;-64
2022/09/06 12:27:14;;;;;;;7.35;6.75;;;22.50;99.90;;;;;;6273874;27;83276;-64
2022/09/06 12:30:32;;;;;;;6.63;6.03;;;22.50;99.90;;;;;;6272046;27;84172;-64
2022/09/06 12:33:37;;;;;;;6.80;6.30;;;22.50;99.90;;;;;;6284554;27;84438;-64
2022/09/06 12:36:49;;;;;;;6.32;5.82;;;22.50;99.90;;;;;;6273260;27;84872;-65
2022/09/06 12:39:58;;;;;;;6.53;6.03;;;22.50;99.90;;;;;;6277391;27;83906;-66
2022/09/06 12:43:02;;;;;;;6.60;6.10;;;22.60;99.90;;;;;;6276960;27;84091;-67
2022/09/06 12:46:07;;;;;;;7.00;6.40;;;22.60;99.90;;;;;;6268901;27;84008;-66
2022/09/06 12:49:11;;;;;;;6.53;6.03;;;22.50;99.90;;;;;;6274044;27;83097;-66
2022/09/06 12:52:16;;;;;;;6.65;6.05;;;22.50;99.90;;;;;;6273445;27;83996;-66
2022/09/06 12:55:25;;;;;;;6.60;6.10;;;22.50;99.90;;;;;;6264401;27;83242;-66
2022/09/06 12:58:28;;;;;;;6.80;6.30;;;22.50;99.90;;;;;;6274974;27;83151;-67
2022/09/06 13:01:34;;;;;;;6.55;6.05;;;22.50;99.90;;;;;;6259606;27;82887;-66
2022/09/06 13:04:42;;;;;;;6.40;5.90;;;22.50;99.90;;;;;;6266468;27;84037;-66
2022/09/06 13:07:46;;;;;;;6.82;6.25;;;22.50;99.90;;;;;;6265194;27;84339;-66
2022/09/06 13:10:49;;;;;;;6.57;6.07;;;22.50;99.90;;;;;;6271320;27;84241;-66
2022/09/06 13:13:52;;;;;;;7.50;6.90;;;22.50;99.90;;;;;;6260347;27;84072;-66
2022/09/06 13:16:55;;;;;;;6.82;6.30;;;22.50;99.90;;;;;;6261670;27;84722;-66
2022/09/06 13:20:11;;;;;;;7.03;6.43;;;22.60;99.90;;;;;;6284288;27;84360;-66
2022/09/06 13:23:20;;;;;;;6.60;6.10;;;22.60;99.90;;;;;;6271172;27;83958;-66
2022/09/06 13:26:36;;;;;;;6.95;6.35;;;22.60;99.90;;;;;;6267349;27;83989;-66
2022/09/06 13:29:38;;;;;;;7.00;6.50;;;22.50;99.90;;;;;;6283674;27;83221;-66
2022/09/06 13:32:47;;;;;;;6.82;6.22;;;22.50;99.90;;;;;;6279580;27;84120;-66
2022/09/06 13:36:07;;;;;;;6.45;5.95;;;22.60;99.90;;;;;;6262688;27;82796;-66
2022/09/06 13:39:11;;;;;;;6.63;6.13;;;22.50;99.90;;;;;;6267036;27;84220;-66
2022/09/06 13:42:25;;;;;;;6.35;5.85;;;22.60;99.90;;;;;;6283022;27;84773;-66
2022/09/06 13:45:29;;;;;;;6.70;6.20;;;22.60;99.90;;;;;;6260126;27;82994;-66
2022/09/06 13:48:31;;;;;;;6.57;6.07;;;22.60;99.90;;;;;;6279277;27;84011;-66
2022/09/06 13:51:35;;;;;;;6.55;6.05;;;22.60;99.90;;;;;;6280749;27;84411;-66
2022/09/06 13:54:38;;;;;;;6.60;6.10;;;22.60;99.90;;;;;;6266859;27;84430;-66
2022/09/06 13:57:40;;;;;;;6.95;6.38;;;22.60;99.90;;;;;;6277806;27;83959;-66
2022/09/06 14:00:42;;;;;;;6.70;6.10;;;22.60;99.90;;;;;;6268824;27;82561;-67
2022/09/06 14:03:44;;;;;;;6.63;6.13;;;22.60;99.90;;;;;;6258508;27;83958;-66
2022/09/06 14:06:48;;;;;;;6.30;5.80;;;22.60;99.90;;;;;;6281608;27;84490;-67
2022/09/06 14:09:50;;;;;;;6.78;6.22;;;22.60;99.90;;;;;;6271092;27;84994;-67
2022/09/06 14:12:54;;;;;;;6.20;5.70;;;22.60;99.90;;;;;;6269495;27;84263;-67
2022/09/06 14:15:56;;;;;;;6.30;5.80;;;22.60;99.90;;;;;;6263370;27;84109;-66
2022/09/06 14:18:58;;;;;;;6.20;5.70;;;22.60;99.90;;;;;;6271380;27;84022;-67
2022/09/06 14:22:03;;;;;;;6.47;5.97;;;22.60;99.90;;;;;;6261350;27;83970;-66
2022/09/06 14:25:07;;;;;;;6.15;5.65;;;22.60;99.90;;;;;;6282003;27;86115;-67
2022/09/06 14:28:08;;;;;;;6.50;6.00;;;22.60;99.90;;;;;;6268709;27;84232;-66
2022/09/06 14:31:12;;;;;;;6.15;5.65;;;22.60;99.90;;;;;;6279555;27;83423;-67
2022/09/06 14:34:13;;;;;;;6.18;5.68;;;22.60;99.90;;;;;;6270060;27;83905;-67
2022/09/06 14:37:17;;;;;;;6.10;5.60;;;22.60;99.90;;;;;;6280059;27;82959;-67
2022/09/06 14:40:19;;;;;;;6.13;5.63;;;22.60;99.90;;;;;;6268191;27;84982;-67
2022/09/06 14:43:21;;;;;;;6.80;6.10;;;22.60;99.90;;;;;;6269577;27;84099;-67
2022/09/06 14:46:25;;;;;;;6.38;5.82;;;22.60;99.90;;;;;;6277304;27;84277;-67
2022/09/06 14:49:27;;;;;;;6.35;5.82;;;22.60;99.90;;;;;;6271485;27;84262;-66
2022/09/06 14:52:30;;;;;;;6.20;5.70;;;22.60;99.90;;;;;;6281362;27;84003;-67
2022/09/06 14:55:33;;;;;;;6.18;5.68;;;22.60;99.90;;;;;;6266938;27;82972;-67
2022/09/06 14:58:36;;;;;;;6.05;5.55;;;22.60;99.90;;;;;;6283175;27;84352;-67
2022/09/06 15:01:39;;;;;;;5.80;5.40;;;22.60;99.90;;;;;;6280602;27;83197;-66
2022/09/06 15:04:41;;;;;;;5.78;5.38;;;22.70;99.90;;;;;;6276758;27;82825;-67
2022/09/06 15:07:45;;;;;;;6.15;5.65;;;22.70;99.90;;;;;;6257177;27;83033;-67
2022/09/06 15:10:53;;;;;;;6.22;5.63;;;22.60;99.90;;;;;;6258868;27;84984;-67
2022/09/06 15:13:55;;;;;;;5.97;5.47;;;22.70;99.90;;;;;;6262373;27;82931;-67
2022/09/06 15:16:58;;;;;;;5.78;5.38;;;22.70;99.90;;;;;;6263316;27;83968;-66
2022/09/06 15:20:00;;;;;;;5.70;5.25;;;22.60;99.90;;;;;;6271840;27;84123;-67
2022/09/06 15:23:04;;;;;;;5.75;5.25;;;22.70;99.90;;;;;;6271119;27;84112;-66
2022/09/06 15:26:06;;;;;;;5.43;5.03;;;22.60;99.90;;;;;;6279084;27;83829;-66
2022/09/06 15:29:10;;;;;;;5.78;5.28;;;22.70;99.90;;;;;;6261491;27;84658;-67
2022/09/06 15:32:12;;;;;;;5.72;5.25;;;22.60;99.90;;;;;;6276150;27;83387;-67
2022/09/06 15:35:14;;;;;;;5.53;5.07;;;22.60;99.90;;;;;;6271388;27;84043;-66
2022/09/06 15:38:18;;;;;;;5.80;5.30;;;22.60;99.90;;;;;;6273730;27;84466;-66
2022/09/06 15:41:22;;;;;;;5.47;5.07;;;22.60;99.90;;;;;;6285759;27;85299;-67
2022/09/06 15:44:25;;;;;;;5.45;5.03;;;22.70;99.90;;;;;;6263539;27;84187;-66
2022/09/06 15:47:27;;;;;;;5.78;5.30;;;22.70;99.90;;;;;;6262808;27;84176;-66
2022/09/06 15:50:30;;;;;;;5.72;5.32;;;22.70;99.90;;;;;;6261482;27;83962;-67
2022/09/06 15:53:33;;;;;;;5.65;5.22;;;22.70;99.90;;;;;;6266149;27;84071;-66
2022/09/06 15:56:35;;;;;;;5.50;5.10;;;22.70;99.90;;;;;;6271848;27;84077;-67
2022/09/06 15:59:39;;;;;;;6.00;5.50;;;22.70;99.90;;;;;;6261324;27;84887;-66
2022/09/06 16:02:41;;;;;;;5.78;5.28;;;22.70;99.90;;;;;;6276194;27;82922;-66
2022/09/06 16:05:43;;;;;;;5.90;5.43;;;22.70;99.90;;;;;;6271382;27;84364;-64